createdAt,value
2019-05-22T00:01:47.490Z,17.30
2019-05-22T00:04:35.042Z,18.77
2019-05-22T00:07:36.827Z,17.87
2019-05-22T00:10:23.066Z,17.63
2019-05-22T00:13:08.308Z,17.97
2019-05-22T00:15:54.742Z,18.23
2019-05-22T00:18:39.871Z,18.37
2019-05-22T00:21:35.438Z,19.37
2019-05-22T00:24:21.978Z,18.20
2019-05-22T00:27:07.383Z,19.57
2019-05-22T00:29:53.947Z,20.03
2019-05-22T00:32:39.403Z,20.63
2019-05-22T00:35:25.250Z,20.10
2019-05-22T00:38:11.924Z,21.17
2019-05-22T00:40:58.420Z,22.00
2019-05-22T00:43:44.447Z,22.73
2019-05-22T00:46:30.061Z,21.90
2019-05-22T00:50:08.529Z,21.90
2019-05-22T00:53:28.588Z,21.40
2019-05-22T00:56:30.158Z,23.13
2019-05-22T00:59:19.011Z,23.03
2019-05-22T01:02:06.587Z,23.83
2019-05-22T01:05:09.239Z,22.07
2019-05-22T01:07:56.683Z,23.63
2019-05-22T01:10:57.555Z,24.83
2019-05-22T01:13:42.756Z,22.23
2019-05-22T01:16:37.043Z,22.80
2019-05-22T01:19:22.042Z,23.23
2019-05-22T01:22:16.032Z,23.67
2019-05-22T01:25:16.017Z,22.43
2019-05-22T01:28:13.139Z,22.97
2019-05-22T01:31:13.675Z,23.93
2019-05-22T01:37:14.247Z,24.13
2019-05-22T01:40:05.043Z,24.03
2019-05-22T01:42:52.133Z,23.03
2019-05-22T01:45:39.042Z,24.80
2019-05-22T01:48:23.549Z,24.83
2019-05-22T01:51:18.047Z,23.13
2019-05-22T01:54:02.587Z,24.37
2019-05-22T01:57:04.096Z,23.83
2019-05-22T01:59:49.635Z,24.70
2019-05-22T02:02:47.575Z,25.13
2019-05-22T02:05:33.377Z,25.30
2019-05-22T02:08:27.983Z,24.43
2019-05-22T02:11:12.828Z,23.73
2019-05-22T02:13:57.945Z,24.03
2019-05-22T02:16:57.122Z,23.83
2019-05-22T02:19:50.350Z,22.87
2019-05-22T02:22:35.575Z,23.87
2019-05-22T02:25:30.054Z,23.00
2019-05-22T02:28:14.735Z,24.33
2019-05-22T02:30:59.296Z,25.33
2019-05-22T02:34:02.905Z,24.13
2019-05-22T02:36:47.782Z,24.67
2019-05-22T02:39:34.920Z,23.77
2019-05-22T02:42:20.592Z,24.17
2019-05-22T02:45:18.040Z,24.60
2019-05-22T02:48:02.405Z,23.83
2019-05-22T02:50:55.660Z,24.30
2019-05-22T02:53:40.817Z,23.00
2019-05-22T02:56:25.595Z,23.43
2019-05-22T02:59:09.837Z,24.20
2019-05-22T03:01:54.396Z,25.03
2019-05-22T03:04:40.055Z,24.03
2019-05-22T03:07:27.433Z,24.67
2019-05-22T03:10:12.072Z,24.37
2019-05-22T03:12:56.927Z,25.50
2019-05-22T03:15:42.193Z,24.27
2019-05-22T03:18:26.734Z,25.53
2019-05-22T03:21:11.626Z,25.00
2019-05-22T03:23:56.082Z,23.93
2019-05-22T03:26:40.489Z,23.50
2019-05-22T03:29:35.093Z,25.17
2019-05-22T03:32:19.516Z,25.03
2019-05-22T03:35:12.828Z,24.93
2019-05-22T03:37:59.186Z,23.93
2019-05-22T03:40:44.197Z,24.30
2019-05-22T03:43:29.491Z,23.63
2019-05-22T03:46:25.100Z,25.47
2019-05-22T03:49:28.343Z,24.33
2019-05-22T03:51:57.228Z,25.40
2019-05-22T03:54:43.507Z,24.23
2019-05-22T03:57:28.983Z,25.03
2019-05-22T04:00:15.695Z,25.13
2019-05-22T04:03:11.128Z,25.60
2019-05-22T04:06:06.132Z,24.03
2019-05-22T04:08:51.552Z,26.27
2019-05-22T04:11:36.345Z,22.87
2019-05-22T04:14:21.397Z,24.57
2019-05-22T04:17:16.533Z,24.60
2019-05-22T04:20:01.533Z,25.07
2019-05-22T04:22:46.484Z,23.50
2019-05-22T04:25:30.956Z,22.47
2019-05-22T04:28:16.191Z,23.60
2019-05-22T04:31:01.668Z,23.03
2019-05-22T04:33:55.294Z,24.03
2019-05-22T04:36:39.983Z,23.37
2019-05-22T04:39:25.923Z,23.97
2019-05-22T04:42:11.819Z,24.03
2019-05-22T04:45:08.156Z,24.00
2019-05-22T04:47:53.068Z,22.97
2019-05-22T04:50:38.057Z,22.63
2019-05-22T04:53:22.773Z,23.97
2019-05-22T04:56:07.980Z,25.30
2019-05-22T04:58:52.935Z,22.70
2019-05-22T05:01:46.789Z,22.40
2019-05-22T05:04:31.889Z,23.27
2019-05-22T05:07:27.255Z,23.60
2019-05-22T05:10:11.743Z,23.57
2019-05-22T05:12:56.541Z,23.30
2019-05-22T05:15:40.959Z,23.57
2019-05-22T05:18:26.088Z,23.13
2019-05-22T05:21:10.818Z,22.43
2019-05-22T05:24:05.475Z,21.63
2019-05-22T05:26:50.272Z,21.47
2019-05-22T05:29:35.095Z,21.23
2019-05-22T05:32:19.497Z,20.53
2019-05-22T05:35:04.568Z,20.77
2019-05-22T05:37:49.200Z,20.37
2019-05-22T05:40:39.171Z,20.77
2019-05-22T05:43:32.997Z,20.93
2019-05-22T05:46:17.632Z,19.03
2019-05-22T05:49:02.064Z,20.97
2019-05-22T05:51:48.691Z,20.53
2019-05-22T05:54:35.039Z,20.60
2019-05-22T05:57:19.583Z,19.87
2019-05-22T06:00:05.132Z,20.57
2019-05-22T06:02:56.419Z,20.63
2019-05-22T06:05:45.453Z,19.93
2019-05-22T06:08:30.528Z,19.93
2019-05-22T06:11:15.357Z,18.87
2019-05-22T06:14:00.168Z,18.37
2019-05-22T06:17:12.124Z,18.93
2019-05-22T06:20:16.761Z,19.57
2019-05-22T06:23:12.012Z,18.20
2019-05-22T06:25:58.167Z,18.77
2019-05-22T06:28:52.532Z,19.20
2019-05-22T06:31:48.384Z,19.37
2019-05-22T06:34:45.431Z,18.97
2019-05-22T06:37:30.811Z,18.40
2019-05-22T06:40:16.899Z,19.03
2019-05-22T06:43:01.455Z,18.80
2019-05-22T06:45:46.103Z,18.37
2019-05-22T06:48:30.630Z,18.57
2019-05-22T06:51:25.992Z,18.13
2019-05-22T06:54:19.445Z,17.53
2019-05-22T06:57:06.001Z,17.27
2019-05-22T07:00:10.870Z,18.37
2019-05-22T07:02:37.401Z,17.53
2019-05-22T07:05:21.976Z,17.80
2019-05-22T07:08:09.379Z,17.07
2019-05-22T07:10:53.858Z,19.43
2019-05-22T07:13:50.068Z,18.43
2019-05-22T07:16:35.024Z,18.33
2019-05-22T07:19:20.152Z,18.53
2019-05-22T07:22:05.100Z,18.27
2019-05-22T07:24:49.587Z,17.77
2019-05-22T07:27:34.427Z,18.30
2019-05-22T07:30:18.882Z,18.57
2019-05-22T07:33:03.806Z,18.23
2019-05-22T07:36:07.855Z,18.30
2019-05-22T07:38:35.279Z,17.77
2019-05-22T07:41:19.691Z,18.27
2019-05-22T07:44:04.149Z,18.87
2019-05-22T07:46:58.080Z,18.23
2019-05-22T07:49:51.629Z,16.50
2019-05-22T07:52:36.316Z,17.67
2019-05-22T07:55:21.272Z,17.70
2019-05-22T07:58:06.043Z,17.07
2019-05-22T08:04:27.954Z,16.77
2019-05-22T08:07:23.888Z,17.13
2019-05-22T08:10:20.910Z,17.17
2019-05-22T08:13:05.884Z,17.27
2019-05-22T08:15:50.053Z,16.50
2019-05-22T08:18:45.276Z,16.30
2019-05-22T08:21:30.334Z,17.33
2019-05-22T08:24:15.336Z,15.67
2019-05-22T08:26:59.808Z,15.47
2019-05-22T08:29:44.603Z,16.37
2019-05-22T08:32:29.295Z,15.47
2019-05-22T08:35:13.696Z,15.23
2019-05-22T08:38:09.846Z,14.80
2019-05-22T08:41:03.851Z,14.30
2019-05-22T08:44:13.634Z,14.83
2019-05-22T08:46:35.961Z,15.17
2019-05-22T08:49:21.483Z,14.77
2019-05-22T08:52:05.795Z,14.00
2019-05-22T08:54:50.556Z,12.80
2019-05-22T08:57:35.228Z,13.10
2019-05-22T09:00:21.948Z,12.80
2019-05-22T09:03:06.289Z,12.97
2019-05-22T09:05:59.653Z,12.57
2019-05-22T09:08:44.229Z,12.13
2019-05-22T09:11:29.191Z,11.90
2019-05-22T09:14:14.080Z,12.37
2019-05-22T09:16:59.108Z,12.63
2019-05-22T09:19:43.187Z,12.20
2019-05-22T09:22:40.011Z,11.67
2019-05-22T09:25:14.231Z,11.50
2019-05-22T09:27:59.213Z,11.13
2019-05-22T09:30:44.040Z,11.00
2019-05-22T09:33:28.746Z,10.90
2019-05-22T09:36:13.867Z,10.87
2019-05-22T09:38:58.545Z,10.37
2019-05-22T09:41:43.225Z,10.50
2019-05-22T09:44:27.736Z,11.03
2019-05-22T09:47:20.992Z,9.30
2019-05-22T09:50:06.268Z,9.50
2019-05-22T09:52:59.976Z,9.00
2019-05-22T09:55:47.413Z,9.00
2019-05-22T09:58:42.636Z,9.10
2019-05-22T10:01:27.303Z,9.00
2019-05-22T10:04:12.512Z,8.73
2019-05-22T10:06:58.608Z,9.20
2019-05-22T10:09:43.091Z,8.50
2019-05-22T10:12:27.581Z,8.40
2019-05-22T10:15:12.524Z,8.20
2019-05-22T10:17:57.655Z,7.97
2019-05-22T10:20:42.544Z,8.23
2019-05-22T10:23:26.994Z,8.10
2019-05-22T10:26:11.847Z,8.30
2019-05-22T10:28:55.955Z,7.73
2019-05-22T10:31:50.936Z,8.37
2019-05-22T10:34:37.084Z,8.87
2019-05-22T10:37:23.245Z,7.93
2019-05-22T10:40:09.907Z,8.37
2019-05-22T10:42:57.258Z,7.80
2019-05-22T10:45:54.675Z,8.07
2019-05-22T10:48:50.051Z,8.43
2019-05-22T10:51:44.909Z,7.73
2019-05-22T10:54:31.220Z,7.40
2019-05-22T10:57:16.312Z,7.87
2019-05-22T11:00:01.759Z,7.57
2019-05-22T11:02:47.812Z,7.03
2019-05-22T11:05:32.232Z,8.53
2019-05-22T11:08:17.269Z,7.57
2019-05-22T11:11:01.653Z,8.20
2019-05-22T11:13:59.815Z,7.80
2019-05-22T11:16:33.042Z,7.97
2019-05-22T11:19:17.523Z,8.27
2019-05-22T11:22:02.121Z,8.30
2019-05-22T11:24:46.471Z,8.70
2019-05-22T11:27:32.152Z,8.20
2019-05-22T11:30:17.024Z,8.73
2019-05-22T11:33:01.909Z,8.20
2019-05-22T11:35:46.688Z,7.87
2019-05-22T11:38:31.333Z,9.53
2019-05-22T11:41:17.462Z,9.00
2019-05-22T11:44:01.607Z,7.93
2019-05-22T11:46:55.243Z,7.73
2019-05-22T11:49:39.777Z,7.03
2019-05-22T11:52:24.742Z,6.60
2019-05-22T11:55:10.838Z,7.37
2019-05-22T11:57:55.727Z,6.50
2019-05-22T12:00:40.301Z,6.03
2019-05-22T12:03:25.666Z,6.90
2019-05-22T12:06:10.042Z,6.40
2019-05-22T12:08:54.623Z,6.53
2019-05-22T12:11:43.139Z,6.23
2019-05-22T12:14:26.868Z,6.10
2019-05-22T12:17:36.759Z,5.57
2019-05-22T12:20:06.635Z,5.10
2019-05-22T12:22:50.757Z,6.10
2019-05-22T12:25:44.364Z,6.03
2019-05-22T12:28:29.100Z,6.20
2019-05-22T12:31:13.685Z,7.53
2019-05-22T12:33:58.311Z,7.00
2019-05-22T12:36:43.076Z,7.47
2019-05-22T12:39:28.055Z,7.10
2019-05-22T12:42:13.567Z,7.33
2019-05-22T12:45:07.173Z,7.07
2019-05-22T12:47:52.198Z,6.17
2019-05-22T12:50:36.544Z,7.43
2019-05-22T12:53:21.174Z,7.20
2019-05-22T12:56:06.421Z,6.47
2019-05-22T12:58:51.381Z,6.10
2019-05-22T13:01:36.492Z,6.20
2019-05-22T13:04:22.355Z,6.43
2019-05-22T13:07:06.815Z,6.47
2019-05-22T13:09:51.179Z,5.97
2019-05-22T13:12:44.904Z,5.73
2019-05-22T13:15:29.616Z,5.10
2019-05-22T13:18:14.681Z,5.00
2019-05-22T13:21:00.226Z,5.67
2019-05-22T13:23:56.286Z,5.67
2019-05-22T13:26:40.513Z,5.70
2019-05-22T13:29:34.744Z,5.57
2019-05-22T13:32:28.960Z,6.40
2019-05-22T13:35:23.870Z,5.83
2019-05-22T13:38:17.517Z,6.27
2019-05-22T13:41:01.910Z,5.83
2019-05-22T13:43:47.559Z,5.90
2019-05-22T13:46:41.101Z,5.37
2019-05-22T13:49:26.351Z,5.27
2019-05-22T13:52:10.883Z,5.27
2019-05-22T13:54:55.132Z,5.40
2019-05-22T13:57:40.788Z,5.53
2019-05-22T14:00:26.123Z,5.20
2019-05-22T14:03:19.751Z,5.37
2019-05-22T14:06:04.607Z,5.13
2019-05-22T14:08:49.565Z,4.90
2019-05-22T14:11:44.000Z,4.87
2019-05-22T14:14:37.823Z,4.47
2019-05-22T14:17:23.355Z,5.27
2019-05-22T14:20:16.623Z,4.40
2019-05-22T14:23:01.504Z,4.00
2019-05-22T14:25:46.396Z,4.43
2019-05-22T14:28:31.128Z,4.37
2019-05-22T14:31:15.363Z,4.40
2019-05-22T14:34:00.267Z,4.00
2019-05-22T14:36:45.430Z,4.07
2019-05-22T14:39:30.578Z,4.37
2019-05-22T14:42:16.875Z,4.33
2019-05-22T14:45:13.069Z,3.37
2019-05-22T14:47:59.749Z,4.20
2019-05-22T14:50:46.060Z,3.80
2019-05-22T14:53:32.545Z,4.60
2019-05-22T14:56:18.948Z,3.63
2019-05-22T14:59:04.463Z,4.33
2019-05-22T15:02:01.699Z,4.30
2019-05-22T15:04:57.260Z,5.27
2019-05-22T15:07:43.559Z,4.10
2019-05-22T15:10:30.995Z,4.30
2019-05-22T15:13:27.685Z,4.50
2019-05-22T15:16:23.657Z,4.10
2019-05-22T15:19:09.303Z,3.80
2019-05-22T15:22:06.412Z,3.70
2019-05-22T15:24:52.668Z,3.90
2019-05-22T15:27:39.702Z,3.90
2019-05-22T15:30:35.964Z,3.83
2019-05-22T15:33:37.883Z,3.37
2019-05-22T15:36:24.787Z,3.33
2019-05-22T15:39:24.587Z,3.20
2019-05-22T15:42:29.637Z,3.40
2019-05-22T15:45:15.232Z,3.97
2019-05-22T15:48:15.161Z,4.30
2019-05-22T15:50:59.611Z,3.97
2019-05-22T15:53:44.267Z,4.30
2019-05-22T15:56:28.833Z,3.73
2019-05-22T15:59:22.907Z,4.07
2019-05-22T16:02:09.300Z,4.33
2019-05-22T16:04:53.982Z,4.93
2019-05-22T16:07:39.256Z,4.53
2019-05-22T16:10:33.492Z,4.87
2019-05-22T16:13:19.120Z,4.67
2019-05-22T16:16:14.787Z,3.80
2019-05-22T16:18:59.884Z,3.83
2019-05-22T16:21:53.999Z,4.30
2019-05-22T16:24:38.839Z,4.93
2019-05-22T16:27:23.388Z,4.27
2019-05-22T16:30:08.323Z,4.47
2019-05-22T16:32:53.471Z,4.23
2019-05-22T16:35:38.399Z,4.80
2019-05-22T16:38:33.384Z,5.17
2019-05-22T16:41:18.065Z,4.70
2019-05-22T16:44:13.982Z,4.60
2019-05-22T16:46:59.073Z,4.07
2019-05-22T16:49:52.947Z,3.80
2019-05-22T16:52:37.593Z,4.27
2019-05-22T16:55:23.036Z,4.10
2019-05-22T16:58:16.723Z,3.60
2019-05-22T17:01:01.345Z,3.80
2019-05-22T17:03:45.807Z,3.73
2019-05-22T17:06:30.065Z,3.60
2019-05-22T17:09:24.564Z,3.27
2019-05-22T17:12:09.689Z,3.70
2019-05-22T17:15:04.119Z,3.77
2019-05-22T17:17:49.133Z,4.17
2019-05-22T17:20:33.950Z,4.07
2019-05-22T17:23:19.312Z,3.53
2019-05-22T17:26:04.271Z,3.80
2019-05-22T17:28:48.383Z,3.57
2019-05-22T17:31:33.178Z,3.77
2019-05-22T17:34:36.884Z,3.60
2019-05-22T17:37:30.589Z,3.63
2019-05-22T17:40:24.347Z,3.83
2019-05-22T17:43:09.560Z,4.47
2019-05-22T17:46:03.880Z,4.10
2019-05-22T17:48:57.763Z,3.83
2019-05-22T17:51:42.194Z,3.80
2019-05-22T17:54:36.656Z,3.77
2019-05-22T17:57:21.649Z,3.90
2019-05-22T18:00:07.633Z,5.97
2019-05-22T18:02:52.259Z,4.70
2019-05-22T18:05:37.245Z,4.23
2019-05-22T18:08:23.195Z,4.20
2019-05-22T18:11:08.124Z,3.90
2019-05-22T18:13:52.755Z,4.87
2019-05-22T18:16:37.724Z,4.60
2019-05-22T18:19:22.191Z,4.77
2019-05-22T18:22:16.816Z,4.67
2019-05-22T18:25:11.236Z,4.47
2019-05-22T18:28:04.681Z,4.90
2019-05-22T18:30:49.280Z,4.60
2019-05-22T18:33:33.800Z,4.93
2019-05-22T18:36:18.340Z,4.80
2019-05-22T18:39:13.507Z,5.10
2019-05-22T18:41:57.635Z,4.90
2019-05-22T18:44:42.479Z,4.80
2019-05-22T18:47:26.993Z,5.00
2019-05-22T18:50:11.993Z,4.77
2019-05-22T18:52:56.727Z,4.90
2019-05-22T18:55:41.300Z,5.43
2019-05-22T18:58:34.835Z,4.83
2019-05-22T19:01:20.045Z,5.03
2019-05-22T19:04:13.834Z,5.00
2019-05-22T19:06:58.828Z,4.73
2019-05-22T19:09:52.528Z,5.13
2019-05-22T19:12:37.752Z,5.23
2019-05-22T19:15:22.620Z,6.10
2019-05-22T19:18:16.778Z,5.70
2019-05-22T19:21:11.016Z,5.13
2019-05-22T19:23:55.800Z,6.10
2019-05-22T19:26:40.164Z,6.53
2019-05-22T19:29:24.569Z,6.17
2019-05-22T19:32:20.688Z,5.93
2019-05-22T19:35:05.056Z,6.83
2019-05-22T19:37:52.417Z,6.43
2019-05-22T19:40:37.728Z,7.03
2019-05-22T19:43:33.655Z,6.40
2019-05-22T19:46:19.475Z,6.07
2019-05-22T19:49:13.487Z,7.07
2019-05-22T19:51:58.172Z,7.43
2019-05-22T19:54:42.948Z,7.20
2019-05-22T19:57:27.559Z,7.40
2019-05-22T20:00:12.611Z,6.63
2019-05-22T20:02:58.199Z,7.17
2019-05-22T20:05:53.832Z,7.57
2019-05-22T20:08:47.335Z,8.30
2019-05-22T20:11:32.550Z,7.13
2019-05-22T20:14:26.238Z,6.20
2019-05-22T20:17:11.823Z,6.37
2019-05-22T20:19:57.450Z,6.37
2019-05-22T20:22:42.959Z,5.97
2019-05-22T20:25:37.153Z,5.60
2019-05-22T20:28:31.454Z,6.47
2019-05-22T20:31:24.788Z,5.40
2019-05-22T20:34:10.029Z,5.83
2019-05-22T20:37:03.847Z,5.80
2019-05-22T20:39:48.637Z,5.40
2019-05-22T20:42:33.885Z,5.70
2019-05-22T20:45:29.620Z,5.73
2019-05-22T20:48:29.891Z,6.77
2019-05-22T20:51:16.595Z,5.70
2019-05-22T20:54:00.859Z,5.93
2019-05-22T20:56:46.672Z,6.23
2019-05-22T20:59:42.051Z,6.27
2019-05-22T21:02:27.041Z,6.53
2019-05-22T21:05:12.898Z,6.90
2019-05-22T21:07:58.268Z,5.93
2019-05-22T21:10:43.435Z,6.60
2019-05-22T21:13:38.142Z,6.57
2019-05-22T21:16:23.141Z,6.40
2019-05-22T21:19:07.987Z,6.97
2019-05-22T21:21:53.249Z,6.40
2019-05-22T21:24:38.040Z,6.27
2019-05-22T21:27:23.013Z,7.03
2019-05-22T21:30:22.286Z,7.17
2019-05-22T21:33:15.867Z,6.90
2019-05-22T21:36:00.740Z,7.07
2019-05-22T21:38:44.931Z,7.40
2019-05-22T21:41:30.323Z,6.73
2019-05-22T21:44:15.442Z,7.30
2019-05-22T21:47:00.187Z,7.83
2019-05-22T21:49:44.570Z,8.10
2019-05-22T21:52:29.692Z,6.80
2019-05-22T21:55:14.524Z,6.90
2019-05-22T21:57:59.131Z,7.67
2019-05-22T22:01:02.587Z,7.80
2019-05-22T22:03:50.008Z,7.37
2019-05-22T22:06:51.669Z,7.80
2019-05-22T22:13:12.759Z,8.37
2019-05-22T22:15:57.384Z,7.40
2019-05-22T22:18:42.148Z,7.70
2019-05-22T22:21:27.266Z,7.80
2019-05-22T22:24:13.231Z,8.53
2019-05-22T22:26:58.158Z,7.87
2019-05-22T22:29:42.757Z,8.33
2019-05-22T22:32:28.972Z,8.50
2019-05-22T22:35:13.820Z,8.67
2019-05-22T22:37:58.933Z,8.57
2019-05-22T22:40:43.843Z,8.77
2019-05-22T22:43:28.010Z,9.43
2019-05-22T22:46:18.388Z,9.27
2019-05-22T22:49:05.439Z,9.10
2019-05-22T22:51:50.357Z,9.37
2019-05-22T22:54:35.627Z,8.87
2019-05-22T22:57:20.620Z,9.20
2019-05-22T23:00:05.208Z,9.40
2019-05-22T23:02:50.476Z,10.03
2019-05-22T23:05:34.901Z,9.83
2019-05-22T23:08:19.823Z,10.07
2019-05-22T23:11:04.457Z,10.23
2019-05-22T23:13:49.459Z,10.37
2019-05-22T23:16:34.756Z,10.27
2019-05-22T23:19:28.455Z,9.67
2019-05-22T23:22:31.901Z,10.50
2019-05-22T23:25:17.241Z,9.43
2019-05-22T23:28:02.482Z,9.93
2019-05-22T23:30:56.687Z,9.50
2019-05-22T23:33:51.535Z,10.00
2019-05-22T23:36:36.163Z,10.40
2019-05-22T23:39:21.591Z,10.00
2019-05-22T23:42:17.427Z,11.20
2019-05-22T23:45:02.215Z,10.33
2019-05-22T23:47:47.243Z,9.37
2019-05-22T23:50:31.995Z,11.27
2019-05-22T23:53:18.307Z,9.87
2019-05-22T23:56:04.139Z,10.60
2019-05-22T23:58:58.390Z,11.67
